Bodrum, Turkey
Current Conditions -  °F | °C
As of 8:50 AM on Sunday 23 Nov 2014 (Local Time) from LTFE Reporting Station
Clear Clear  
Wind Chill: 50°   Ceiling: Unl
Heat Index: 50°   Visibility: 6mi
Dew Point: 39°   Wind: 9mph
Humidity: 66%   Direction: 100°E
Pressure: 30.09"   Gusts: NA
Location:  37.04°N, 27.43°E
Report Text: LTFE 230550Z 10008KT CAVOK 10/04 Q1019 NOSIG
Loading
Personal Weather Stations






























Interactive Weather Map New forecast layout! Learn more

10-Day Weather Forecast

Advertisements
Track Severe Weather on mobile